sensor_id;sensor_type;location;lat;lon;timestamp;P1;durP1;ratioP1;P2;durP2;ratioP2
16407;SDS011;8313;49.894;8.084;2023-04-15T00:00:36;3.53;;;1.77;;
16407;SDS011;8313;49.894;8.084;2023-04-15T00:03:02;2.23;;;1.83;;
16407;SDS011;8313;49.894;8.084;2023-04-15T00:05:29;4.33;;;1.87;;
16407;SDS011;8313;49.894;8.084;2023-04-15T00:07:55;6.13;;;2.53;;
16407;SDS011;8313;49.894;8.084;2023-04-15T00:10:23;3.23;;;2.20;;
16407;SDS011;8313;49.894;8.084;2023-04-15T00:12:49;2.40;;;2.20;;
16407;SDS011;8313;49.894;8.084;2023-04-15T00:15:15;2.77;;;1.90;;
16407;SDS011;8313;49.894;8.084;2023-04-15T00:17:41;3.13;;;1.83;;
16407;SDS011;8313;49.894;8.084;2023-04-15T00:20:07;1.53;;;1.43;;
16407;SDS011;8313;49.894;8.084;2023-04-15T00:22:33;2.40;;;1.67;;
16407;SDS011;8313;49.894;8.084;2023-04-15T00:24:59;1.60;;;1.50;;
16407;SDS011;8313;49.894;8.084;2023-04-15T00:27:24;2.60;;;2.17;;
16407;SDS011;8313;49.894;8.084;2023-04-15T00:29:50;1.93;;;1.70;;
16407;SDS011;8313;49.894;8.084;2023-04-15T00:32:15;1.90;;;1.47;;
16407;SDS011;8313;49.894;8.084;2023-04-15T00:34:43;1.40;;;1.30;;
16407;SDS011;8313;49.894;8.084;2023-04-15T00:37:10;2.83;;;1.23;;
16407;SDS011;8313;49.894;8.084;2023-04-15T00:39:35;1.80;;;1.53;;
16407;SDS011;8313;49.894;8.084;2023-04-15T00:42:01;3.60;;;1.63;;
16407;SDS011;8313;49.894;8.084;2023-04-15T00:44:28;4.33;;;2.23;;
16407;SDS011;8313;49.894;8.084;2023-04-15T00:46:54;2.33;;;2.13;;
16407;SDS011;8313;49.894;8.084;2023-04-15T00:49:21;2.47;;;1.40;;
16407;SDS011;8313;49.894;8.084;2023-04-15T00:51:47;1.70;;;1.60;;
16407;SDS011;8313;49.894;8.084;2023-04-15T00:54:13;3.47;;;1.77;;
16407;SDS011;8313;49.894;8.084;2023-04-15T00:56:40;4.03;;;1.30;;
16407;SDS011;8313;49.894;8.084;2023-04-15T00:59:07;1.43;;;1.33;;
16407;SDS011;8313;49.894;8.084;2023-04-15T01:01:34;2.10;;;1.37;;
16407;SDS011;8313;49.894;8.084;2023-04-15T01:04:00;1.77;;;1.37;;
16407;SDS011;8313;49.894;8.084;2023-04-15T01:06:28;2.20;;;1.67;;
16407;SDS011;8313;49.894;8.084;2023-04-15T01:08:54;2.97;;;1.07;;
16407;SDS011;8313;49.894;8.084;2023-04-15T01:11:21;1.50;;;1.40;;
16407;SDS011;8313;49.894;8.084;2023-04-15T01:13:49;1.77;;;1.30;;
16407;SDS011;8313;49.894;8.084;2023-04-15T01:16:16;1.70;;;1.20;;
16407;SDS011;8313;49.894;8.084;2023-04-15T01:18:43;1.53;;;1.43;;
16407;SDS011;8313;49.894;8.084;2023-04-15T01:21:09;1.87;;;1.70;;
16407;SDS011;8313;49.894;8.084;2023-04-15T01:23:35;4.90;;;1.80;;
16407;SDS011;8313;49.894;8.084;2023-04-15T01:26:05;1.87;;;1.60;;
16407;SDS011;8313;49.894;8.084;2023-04-15T01:28:33;2.17;;;1.43;;
16407;SDS011;8313;49.894;8.084;2023-04-15T01:33:35;1.27;;;1.17;;
16407;SDS011;8313;49.894;8.084;2023-04-15T01:36:01;2.10;;;1.30;;
16407;SDS011;8313;49.894;8.084;2023-04-15T01:38:26;1.47;;;1.37;;
16407;SDS011;8313;49.894;8.084;2023-04-15T01:40:53;1.37;;;1.23;;
16407;SDS011;8313;49.894;8.084;2023-04-15T01:43:19;1.80;;;1.53;;
16407;SDS011;8313;49.894;8.084;2023-04-15T01:45:45;2.00;;;1.30;;
16407;SDS011;8313;49.894;8.084;2023-04-15T01:48:11;1.60;;;1.10;;
16407;SDS011;8313;49.894;8.084;2023-04-15T01:50:36;2.63;;;1.43;;
16407;SDS011;8313;49.894;8.084;2023-04-15T01:53:02;5.23;;;1.50;;
16407;SDS011;8313;49.894;8.084;2023-04-15T01:55:28;1.97;;;1.27;;
16407;SDS011;8313;49.894;8.084;2023-04-15T01:57:55;1.47;;;1.20;;
16407;SDS011;8313;49.894;8.084;2023-04-15T02:00:21;2.63;;;1.10;;
16407;SDS011;8313;49.894;8.084;2023-04-15T02:02:47;2.00;;;1.30;;
16407;SDS011;8313;49.894;8.084;2023-04-15T02:05:13;1.20;;;1.10;;
16407;SDS011;8313;49.894;8.084;2023-04-15T02:07:45;1.60;;;1.30;;
16407;SDS011;8313;49.894;8.084;2023-04-15T02:10:11;2.97;;;1.20;;
16407;SDS011;8313;49.894;8.084;2023-04-15T02:12:40;1.27;;;1.17;;
16407;SDS011;8313;49.894;8.084;2023-04-15T02:15:07;2.00;;;1.23;;
16407;SDS011;8313;49.894;8.084;2023-04-15T02:17:34;1.80;;;1.30;;
16407;SDS011;8313;49.894;8.084;2023-04-15T02:20:01;5.90;;;1.97;;
16407;SDS011;8313;49.894;8.084;2023-04-15T02:22:30;1.33;;;1.23;;
16407;SDS011;8313;49.894;8.084;2023-04-15T02:24:56;1.47;;;1.37;;
16407;SDS011;8313;49.894;8.084;2023-04-15T02:27:21;2.30;;;1.37;;
16407;SDS011;8313;49.894;8.084;2023-04-15T02:29:48;2.00;;;1.50;;
16407;SDS011;8313;49.894;8.084;2023-04-15T02:32:17;4.33;;;2.27;;
16407;SDS011;8313;49.894;8.084;2023-04-15T02:34:43;3.50;;;1.60;;
16407;SDS011;8313;49.894;8.084;2023-04-15T02:37:12;1.47;;;1.30;;
16407;SDS011;8313;49.894;8.084;2023-04-15T02:39:38;3.10;;;1.63;;
16407;SDS011;8313;49.894;8.084;2023-04-15T02:42:04;2.07;;;1.60;;
16407;SDS011;8313;49.894;8.084;2023-04-15T02:44:33;1.80;;;1.40;;
16407;SDS011;8313;49.894;8.084;2023-04-15T02:47:02;3.90;;;1.43;;
16407;SDS011;8313;49.894;8.084;2023-04-15T02:49:29;1.47;;;1.30;;
16407;SDS011;8313;49.894;8.084;2023-04-15T02:51:55;3.53;;;1.80;;
16407;SDS011;8313;49.894;8.084;2023-04-15T02:54:23;2.17;;;1.50;;
16407;SDS011;8313;49.894;8.084;2023-04-15T02:56:48;1.87;;;1.77;;
16407;SDS011;8313;49.894;8.084;2023-04-15T02:59:15;4.30;;;1.57;;
16407;SDS011;8313;49.894;8.084;2023-04-15T03:01:40;1.67;;;1.27;;
16407;SDS011;8313;49.894;8.084;2023-04-15T03:04:06;1.47;;;1.00;;
16407;SDS011;8313;49.894;8.084;2023-04-15T03:06:33;2.83;;;1.40;;
16407;SDS011;8313;49.894;8.084;2023-04-15T03:08:59;2.00;;;1.63;;
16407;SDS011;8313;49.894;8.084;2023-04-15T03:11:31;1.70;;;1.60;;
16407;SDS011;8313;49.894;8.084;2023-04-15T03:13:57;3.10;;;1.20;;
16407;SDS011;8313;49.894;8.084;2023-04-15T03:16:28;2.60;;;1.27;;
16407;SDS011;8313;49.894;8.084;2023-04-15T03:18:56;2.40;;;1.30;;
16407;SDS011;8313;49.894;8.084;2023-04-15T03:21:22;1.47;;;1.20;;
16407;SDS011;8313;49.894;8.084;2023-04-15T03:23:48;2.20;;;1.40;;
16407;SDS011;8313;49.894;8.084;2023-04-15T03:26:27;2.20;;;1.40;;
16407;SDS011;8313;49.894;8.084;2023-04-15T03:28:56;2.13;;;1.20;;
16407;SDS011;8313;49.894;8.084;2023-04-15T03:31:22;1.37;;;1.10;;
16407;SDS011;8313;49.894;8.084;2023-04-15T03:33:48;1.50;;;1.23;;
16407;SDS011;8313;49.894;8.084;2023-04-15T03:36:13;2.07;;;1.87;;
16407;SDS011;8313;49.894;8.084;2023-04-15T03:38:40;1.40;;;1.13;;
16407;SDS011;8313;49.894;8.084;2023-04-15T03:41:05;1.00;;;1.00;;
16407;SDS011;8313;49.894;8.084;2023-04-15T03:43:31;1.43;;;1.00;;
16407;SDS011;8313;49.894;8.084;2023-04-15T03:45:57;1.80;;;1.30;;
16407;SDS011;8313;49.894;8.084;2023-04-15T03:48:23;2.13;;;1.57;;
16407;SDS011;8313;49.894;8.084;2023-04-15T03:50:48;1.80;;;1.33;;
16407;SDS011;8313;49.894;8.084;2023-04-15T03:53:14;2.80;;;1.60;;
16407;SDS011;8313;49.894;8.084;2023-04-15T03:55:40;5.47;;;1.43;;
16407;SDS011;8313;49.894;8.084;2023-04-15T03:58:06;1.20;;;1.07;;
16407;SDS011;8313;49.894;8.084;2023-04-15T04:00:37;1.90;;;1.50;;
16407;SDS011;8313;49.894;8.084;2023-04-15T04:03:03;1.33;;;1.23;;
16407;SDS011;8313;49.894;8.084;2023-04-15T04:05:29;2.50;;;1.97;;
16407;SDS011;8313;49.894;8.084;2023-04-15T04:07:55;1.37;;;1.27;;
16407;SDS011;8313;49.894;8.084;2023-04-15T04:10:20;3.03;;;1.80;;
16407;SDS011;8313;49.894;8.084;2023-04-15T04:12:46;4.20;;;1.23;;
16407;SDS011;8313;49.894;8.084;2023-04-15T04:15:12;1.87;;;1.60;;
16407;SDS011;8313;49.894;8.084;2023-04-15T04:17:37;1.30;;;1.07;;
16407;SDS011;8313;49.894;8.084;2023-04-15T04:20:03;1.93;;;1.10;;
16407;SDS011;8313;49.894;8.084;2023-04-15T04:22:29;2.40;;;1.40;;
16407;SDS011;8313;49.894;8.084;2023-04-15T04:24:55;3.80;;;1.80;;
16407;SDS011;8313;49.894;8.084;2023-04-15T04:27:23;2.60;;;1.80;;
16407;SDS011;8313;49.894;8.084;2023-04-15T04:29:49;2.30;;;1.70;;
16407;SDS011;8313;49.894;8.084;2023-04-15T04:32:15;1.20;;;1.07;;
16407;SDS011;8313;49.894;8.084;2023-04-15T04:34:41;1.60;;;1.50;;
16407;SDS011;8313;49.894;8.084;2023-04-15T04:37:06;7.10;;;1.73;;
16407;SDS011;8313;49.894;8.084;2023-04-15T04:39:32;1.30;;;1.20;;
16407;SDS011;8313;49.894;8.084;2023-04-15T04:41:58;2.97;;;1.37;;
16407;SDS011;8313;49.894;8.084;2023-04-15T04:44:23;1.77;;;1.67;;
16407;SDS011;8313;49.894;8.084;2023-04-15T04:46:49;5.90;;;1.70;;
16407;SDS011;8313;49.894;8.084;2023-04-15T04:49:15;2.93;;;2.10;;
16407;SDS011;8313;49.894;8.084;2023-04-15T04:51:40;2.57;;;1.87;;
16407;SDS011;8313;49.894;8.084;2023-04-15T04:54:06;9.10;;;2.53;;
16407;SDS011;8313;49.894;8.084;2023-04-15T04:56:32;4.10;;;1.90;;
16407;SDS011;8313;49.894;8.084;2023-04-15T04:58:58;1.80;;;1.70;;
16407;SDS011;8313;49.894;8.084;2023-04-15T05:01:24;4.20;;;2.10;;
16407;SDS011;8313;49.894;8.084;2023-04-15T05:03:51;4.57;;;2.20;;
16407;SDS011;8313;49.894;8.084;2023-04-15T05:06:17;3.20;;;2.03;;
16407;SDS011;8313;49.894;8.084;2023-04-15T05:08:42;3.37;;;2.10;;
16407;SDS011;8313;49.894;8.084;2023-04-15T05:11:10;3.97;;;1.73;;
16407;SDS011;8313;49.894;8.084;2023-04-15T05:13:37;1.67;;;1.50;;
16407;SDS011;8313;49.894;8.084;2023-04-15T05:16:03;1.90;;;1.80;;
16407;SDS011;8313;49.894;8.084;2023-04-15T05:18:30;2.23;;;1.80;;
16407;SDS011;8313;49.894;8.084;2023-04-15T05:20:56;1.70;;;1.40;;
16407;SDS011;8313;49.894;8.084;2023-04-15T05:23:22;2.90;;;2.17;;
16407;SDS011;8313;49.894;8.084;2023-04-15T05:25:47;3.00;;;2.00;;
16407;SDS011;8313;49.894;8.084;2023-04-15T05:28:13;2.23;;;1.80;;
16407;SDS011;8313;49.894;8.084;2023-04-15T05:30:39;3.50;;;2.17;;
16407;SDS011;8313;49.894;8.084;2023-04-15T05:33:05;10.43;;;2.27;;
16407;SDS011;8313;49.894;8.084;2023-04-15T05:35:31;2.50;;;2.30;;
16407;SDS011;8313;49.894;8.084;2023-04-15T05:37:57;3.33;;;2.10;;
16407;SDS011;8313;49.894;8.084;2023-04-15T05:40:22;1.80;;;1.70;;
16407;SDS011;8313;49.894;8.084;2023-04-15T05:42:48;3.43;;;1.70;;
16407;SDS011;8313;49.894;8.084;2023-04-15T05:45:14;6.37;;;2.53;;
16407;SDS011;8313;49.894;8.084;2023-04-15T05:47:39;4.60;;;2.40;;
16407;SDS011;8313;49.894;8.084;2023-04-15T05:50:05;2.63;;;2.00;;
16407;SDS011;8313;49.894;8.084;2023-04-15T05:52:31;8.53;;;2.63;;
16407;SDS011;8313;49.894;8.084;2023-04-15T05:54:57;4.90;;;2.70;;
16407;SDS011;8313;49.894;8.084;2023-04-15T05:57:22;2.77;;;2.20;;
16407;SDS011;8313;49.894;8.084;2023-04-15T05:59:48;3.97;;;2.57;;
16407;SDS011;8313;49.894;8.084;2023-04-15T06:02:16;3.00;;;2.70;;
16407;SDS011;8313;49.894;8.084;2023-04-15T06:04:42;2.57;;;1.97;;
16407;SDS011;8313;49.894;8.084;2023-04-15T06:07:08;6.90;;;2.40;;
16407;SDS011;8313;49.894;8.084;2023-04-15T06:09:33;3.10;;;2.50;;
16407;SDS011;8313;49.894;8.084;2023-04-15T06:12:00;4.13;;;2.20;;
16407;SDS011;8313;49.894;8.084;2023-04-15T06:14:26;2.37;;;2.17;;
16407;SDS011;8313;49.894;8.084;2023-04-15T06:16:52;4.57;;;2.80;;
16407;SDS011;8313;49.894;8.084;2023-04-15T06:19:18;3.93;;;2.17;;
16407;SDS011;8313;49.894;8.084;2023-04-15T06:21:43;3.57;;;2.13;;
16407;SDS011;8313;49.894;8.084;2023-04-15T06:24:10;2.90;;;2.40;;
16407;SDS011;8313;49.894;8.084;2023-04-15T06:26:36;2.53;;;2.10;;
16407;SDS011;8313;49.894;8.084;2023-04-15T06:29:01;2.83;;;1.93;;
16407;SDS011;8313;49.894;8.084;2023-04-15T06:31:27;2.80;;;2.27;;
16407;SDS011;8313;49.894;8.084;2023-04-15T06:33:54;5.33;;;2.03;;
16407;SDS011;8313;49.894;8.084;2023-04-15T06:36:20;7.00;;;2.73;;
16407;SDS011;8313;49.894;8.084;2023-04-15T06:38:45;4.63;;;2.30;;
16407;SDS011;8313;49.894;8.084;2023-04-15T06:41:11;2.03;;;1.87;;
16407;SDS011;8313;49.894;8.084;2023-04-15T06:43:37;2.37;;;2.17;;
16407;SDS011;8313;49.894;8.084;2023-04-15T06:46:03;2.63;;;2.40;;
16407;SDS011;8313;49.894;8.084;2023-04-15T06:48:29;2.67;;;2.47;;
16407;SDS011;8313;49.894;8.084;2023-04-15T06:50:55;2.63;;;2.20;;
16407;SDS011;8313;49.894;8.084;2023-04-15T06:53:23;5.43;;;2.60;;
16407;SDS011;8313;49.894;8.084;2023-04-15T06:55:52;6.43;;;2.77;;
16407;SDS011;8313;49.894;8.084;2023-04-15T06:58:17;3.57;;;2.50;;
16407;SDS011;8313;49.894;8.084;2023-04-15T07:00:43;4.13;;;2.80;;
16407;SDS011;8313;49.894;8.084;2023-04-15T07:03:10;3.47;;;2.90;;
16407;SDS011;8313;49.894;8.084;2023-04-15T07:05:37;3.70;;;2.93;;
16407;SDS011;8313;49.894;8.084;2023-04-15T07:08:03;2.43;;;1.97;;
16407;SDS011;8313;49.894;8.084;2023-04-15T07:10:29;4.90;;;2.70;;
16407;SDS011;8313;49.894;8.084;2023-04-15T07:12:55;4.50;;;2.70;;
16407;SDS011;8313;49.894;8.084;2023-04-15T07:15:21;5.73;;;2.73;;
16407;SDS011;8313;49.894;8.084;2023-04-15T07:17:47;5.53;;;3.00;;
16407;SDS011;8313;49.894;8.084;2023-04-15T07:20:13;4.43;;;3.10;;
16407;SDS011;8313;49.894;8.084;2023-04-15T07:22:39;3.70;;;2.57;;
16407;SDS011;8313;49.894;8.084;2023-04-15T07:25:05;3.10;;;2.40;;
16407;SDS011;8313;49.894;8.084;2023-04-15T07:27:31;4.60;;;2.67;;
16407;SDS011;8313;49.894;8.084;2023-04-15T07:29:57;3.20;;;2.30;;
16407;SDS011;8313;49.894;8.084;2023-04-15T07:32:23;4.07;;;2.20;;
16407;SDS011;8313;49.894;8.084;2023-04-15T07:34:49;3.60;;;2.73;;
16407;SDS011;8313;49.894;8.084;2023-04-15T07:37:14;3.50;;;2.37;;
16407;SDS011;8313;49.894;8.084;2023-04-15T07:39:40;2.97;;;2.03;;
16407;SDS011;8313;49.894;8.084;2023-04-15T07:42:06;3.00;;;2.30;;
16407;SDS011;8313;49.894;8.084;2023-04-15T07:44:32;3.20;;;2.00;;
16407;SDS011;8313;49.894;8.084;2023-04-15T07:46:58;2.73;;;1.97;;
16407;SDS011;8313;49.894;8.084;2023-04-15T07:49:24;3.23;;;2.00;;
16407;SDS011;8313;49.894;8.084;2023-04-15T07:51:50;9.97;;;2.50;;
16407;SDS011;8313;49.894;8.084;2023-04-15T07:54:16;5.73;;;1.87;;
16407;SDS011;8313;49.894;8.084;2023-04-15T07:56:41;3.40;;;2.40;;
16407;SDS011;8313;49.894;8.084;2023-04-15T07:59:07;4.27;;;2.77;;
16407;SDS011;8313;49.894;8.084;2023-04-15T08:01:34;1.77;;;1.60;;
16407;SDS011;8313;49.894;8.084;2023-04-15T08:04:00;2.30;;;2.10;;
16407;SDS011;8313;49.894;8.084;2023-04-15T08:06:27;4.90;;;2.30;;
16407;SDS011;8313;49.894;8.084;2023-04-15T08:08:53;1.67;;;1.57;;
16407;SDS011;8313;49.894;8.084;2023-04-15T08:11:19;2.87;;;2.67;;
16407;SDS011;8313;49.894;8.084;2023-04-15T08:13:45;3.90;;;2.40;;
16407;SDS011;8313;49.894;8.084;2023-04-15T08:16:12;6.90;;;2.40;;
16407;SDS011;8313;49.894;8.084;2023-04-15T08:18:47;5.70;;;2.60;;
16407;SDS011;8313;49.894;8.084;2023-04-15T08:21:13;3.03;;;2.40;;
16407;SDS011;8313;49.894;8.084;2023-04-15T08:23:39;4.20;;;2.50;;
16407;SDS011;8313;49.894;8.084;2023-04-15T08:26:05;8.87;;;3.20;;
16407;SDS011;8313;49.894;8.084;2023-04-15T08:28:32;2.80;;;1.97;;
16407;SDS011;8313;49.894;8.084;2023-04-15T08:30:58;3.50;;;2.50;;
16407;SDS011;8313;49.894;8.084;2023-04-15T08:33:24;2.97;;;2.67;;
16407;SDS011;8313;49.894;8.084;2023-04-15T08:35:50;3.10;;;2.23;;
16407;SDS011;8313;49.894;8.084;2023-04-15T08:38:15;4.57;;;2.70;;
16407;SDS011;8313;49.894;8.084;2023-04-15T08:40:42;5.20;;;2.20;;
16407;SDS011;8313;49.894;8.084;2023-04-15T08:43:10;3.93;;;2.40;;
16407;SDS011;8313;49.894;8.084;2023-04-15T08:45:39;2.50;;;2.30;;
16407;SDS011;8313;49.894;8.084;2023-04-15T08:48:05;3.63;;;2.27;;
16407;SDS011;8313;49.894;8.084;2023-04-15T08:50:33;3.23;;;2.97;;
16407;SDS011;8313;49.894;8.084;2023-04-15T08:52:59;3.80;;;3.00;;
16407;SDS011;8313;49.894;8.084;2023-04-15T08:55:26;3.10;;;2.13;;
16407;SDS011;8313;49.894;8.084;2023-04-15T08:57:57;5.60;;;2.30;;
16407;SDS011;8313;49.894;8.084;2023-04-15T09:00:24;6.17;;;2.50;;
16407;SDS011;8313;49.894;8.084;2023-04-15T09:02:50;3.60;;;2.73;;
16407;SDS011;8313;49.894;8.084;2023-04-15T09:05:16;3.20;;;2.03;;
16407;SDS011;8313;49.894;8.084;2023-04-15T09:07:42;4.63;;;2.70;;
16407;SDS011;8313;49.894;8.084;2023-04-15T09:10:08;2.80;;;2.33;;
16407;SDS011;8313;49.894;8.084;2023-04-15T09:12:34;3.40;;;3.10;;
16407;SDS011;8313;49.894;8.084;2023-04-15T09:15:01;4.00;;;3.10;;
16407;SDS011;8313;49.894;8.084;2023-04-15T09:17:28;3.10;;;2.80;;
16407;SDS011;8313;49.894;8.084;2023-04-15T09:20:10;3.17;;;2.30;;
16407;SDS011;8313;49.894;8.084;2023-04-15T09:22:38;3.57;;;2.40;;
16407;SDS011;8313;49.894;8.084;2023-04-15T09:25:24;4.60;;;2.90;;
16407;SDS011;8313;49.894;8.084;2023-04-15T09:27:57;2.57;;;2.37;;
16407;SDS011;8313;49.894;8.084;2023-04-15T09:30:24;4.20;;;2.47;;
16407;SDS011;8313;49.894;8.084;2023-04-15T09:32:52;3.67;;;2.50;;
16407;SDS011;8313;49.894;8.084;2023-04-15T09:35:18;6.87;;;2.90;;
16407;SDS011;8313;49.894;8.084;2023-04-15T09:37:44;4.47;;;3.27;;
16407;SDS011;8313;49.894;8.084;2023-04-15T09:40:10;3.83;;;3.07;;
16407;SDS011;8313;49.894;8.084;2023-04-15T09:42:40;15.67;;;4.00;;
16407;SDS011;8313;49.894;8.084;2023-04-15T09:45:22;3.23;;;2.60;;
16407;SDS011;8313;49.894;8.084;2023-04-15T09:47:48;3.33;;;2.53;;
16407;SDS011;8313;49.894;8.084;2023-04-15T09:50:17;3.90;;;2.57;;
16407;SDS011;8313;49.894;8.084;2023-04-15T09:52:43;4.83;;;2.73;;
16407;SDS011;8313;49.894;8.084;2023-04-15T09:55:10;4.40;;;2.93;;
16407;SDS011;8313;49.894;8.084;2023-04-15T09:57:37;5.07;;;3.60;;
16407;SDS011;8313;49.894;8.084;2023-04-15T10:00:06;4.90;;;2.90;;
16407;SDS011;8313;49.894;8.084;2023-04-15T10:02:34;2.80;;;2.00;;
16407;SDS011;8313;49.894;8.084;2023-04-15T10:05:00;3.83;;;2.70;;
16407;SDS011;8313;49.894;8.084;2023-04-15T10:07:27;5.23;;;2.30;;
16407;SDS011;8313;49.894;8.084;2023-04-15T10:09:53;3.53;;;2.13;;
16407;SDS011;8313;49.894;8.084;2023-04-15T10:12:20;2.97;;;1.93;;
16407;SDS011;8313;49.894;8.084;2023-04-15T10:14:47;2.50;;;1.90;;
16407;SDS011;8313;49.894;8.084;2023-04-15T10:17:21;3.70;;;2.33;;
16407;SDS011;8313;49.894;8.084;2023-04-15T10:19:47;3.90;;;2.53;;
16407;SDS011;8313;49.894;8.084;2023-04-15T10:22:14;3.20;;;2.10;;
16407;SDS011;8313;49.894;8.084;2023-04-15T10:24:40;2.13;;;1.77;;
16407;SDS011;8313;49.894;8.084;2023-04-15T10:27:07;2.90;;;1.87;;
16407;SDS011;8313;49.894;8.084;2023-04-15T10:29:33;4.93;;;2.10;;
16407;SDS011;8313;49.894;8.084;2023-04-15T10:32:02;3.80;;;2.27;;
16407;SDS011;8313;49.894;8.084;2023-04-15T10:34:29;3.80;;;2.30;;
16407;SDS011;8313;49.894;8.084;2023-04-15T10:37:02;4.37;;;2.50;;
16407;SDS011;8313;49.894;8.084;2023-04-15T10:44:55;3.17;;;2.03;;
16407;SDS011;8313;49.894;8.084;2023-04-15T10:47:21;6.33;;;2.37;;
16407;SDS011;8313;49.894;8.084;2023-04-15T10:49:51;4.00;;;2.60;;
16407;SDS011;8313;49.894;8.084;2023-04-15T10:52:25;3.07;;;2.17;;
16407;SDS011;8313;49.894;8.084;2023-04-15T10:55:34;3.20;;;2.07;;
16407;SDS011;8313;49.894;8.084;2023-04-15T10:57:46;3.43;;;1.70;;
16407;SDS011;8313;49.894;8.084;2023-04-15T11:00:19;1.70;;;1.53;;
16407;SDS011;8313;49.894;8.084;2023-04-15T11:02:58;1.67;;;1.57;;
16407;SDS011;8313;49.894;8.084;2023-04-15T11:08:03;2.17;;;1.70;;
16407;SDS011;8313;49.894;8.084;2023-04-15T11:13:02;1.63;;;1.53;;
16407;SDS011;8313;49.894;8.084;2023-04-15T11:21:06;1.83;;;1.73;;
16407;SDS011;8313;49.894;8.084;2023-04-15T11:23:33;1.87;;;1.77;;
16407;SDS011;8313;49.894;8.084;2023-04-15T11:26:00;1.97;;;1.50;;
16407;SDS011;8313;49.894;8.084;2023-04-15T11:28:28;1.33;;;1.30;;
16407;SDS011;8313;49.894;8.084;2023-04-15T11:30:55;2.00;;;1.37;;
16407;SDS011;8313;49.894;8.084;2023-04-15T11:33:21;1.60;;;1.50;;
16407;SDS011;8313;49.894;8.084;2023-04-15T11:35:48;1.63;;;1.53;;
16407;SDS011;8313;49.894;8.084;2023-04-15T11:38:14;3.43;;;1.90;;
16407;SDS011;8313;49.894;8.084;2023-04-15T11:40:41;1.17;;;1.17;;
16407;SDS011;8313;49.894;8.084;2023-04-15T11:43:14;1.40;;;1.30;;
16407;SDS011;8313;49.894;8.084;2023-04-15T11:45:53;1.60;;;1.50;;
16407;SDS011;8313;49.894;8.084;2023-04-15T11:48:24;4.43;;;1.83;;
16407;SDS011;8313;49.894;8.084;2023-04-15T11:50:54;3.80;;;2.40;;
16407;SDS011;8313;49.894;8.084;2023-04-15T11:53:37;7.70;;;2.43;;
16407;SDS011;8313;49.894;8.084;2023-04-15T11:56:15;2.70;;;1.70;;
16407;SDS011;8313;49.894;8.084;2023-04-15T11:58:42;3.17;;;1.67;;
16407;SDS011;8313;49.894;8.084;2023-04-15T12:01:10;1.60;;;1.50;;
16407;SDS011;8313;49.894;8.084;2023-04-15T12:03:40;1.33;;;1.23;;
16407;SDS011;8313;49.894;8.084;2023-04-15T12:06:14;4.23;;;1.90;;
16407;SDS011;8313;49.894;8.084;2023-04-15T12:11:50;1.60;;;1.50;;
16407;SDS011;8313;49.894;8.084;2023-04-15T12:16:54;1.17;;;1.07;;
16407;SDS011;8313;49.894;8.084;2023-04-15T12:22:12;2.00;;;1.03;;
16407;SDS011;8313;49.894;8.084;2023-04-15T12:24:40;0.73;;;0.73;;
16407;SDS011;8313;49.894;8.084;2023-04-15T12:27:12;1.17;;;1.07;;
16407;SDS011;8313;49.894;8.084;2023-04-15T12:29:39;1.77;;;1.37;;
16407;SDS011;8313;49.894;8.084;2023-04-15T12:32:08;1.67;;;0.70;;
16407;SDS011;8313;49.894;8.084;2023-04-15T12:37:01;12.13;;;0.90;;
16407;SDS011;8313;49.894;8.084;2023-04-15T12:39:29;0.80;;;0.67;;
16407;SDS011;8313;49.894;8.084;2023-04-15T12:41:57;0.80;;;0.60;;
16407;SDS011;8313;49.894;8.084;2023-04-15T12:44:24;0.70;;;0.63;;
16407;SDS011;8313;49.894;8.084;2023-04-15T12:46:51;0.67;;;0.67;;
16407;SDS011;8313;49.894;8.084;2023-04-15T12:49:17;1.00;;;0.90;;
16407;SDS011;8313;49.894;8.084;2023-04-15T12:51:45;1.07;;;0.77;;
16407;SDS011;8313;49.894;8.084;2023-04-15T12:54:13;0.67;;;0.67;;
16407;SDS011;8313;49.894;8.084;2023-04-15T12:56:38;1.17;;;0.83;;
16407;SDS011;8313;49.894;8.084;2023-04-15T12:59:04;2.10;;;0.80;;
16407;SDS011;8313;49.894;8.084;2023-04-15T13:01:30;1.00;;;0.90;;
16407;SDS011;8313;49.894;8.084;2023-04-15T13:03:56;0.70;;;0.70;;
16407;SDS011;8313;49.894;8.084;2023-04-15T13:06:21;0.90;;;0.70;;
16407;SDS011;8313;49.894;8.084;2023-04-15T13:08:48;1.73;;;0.90;;
16407;SDS011;8313;49.894;8.084;2023-04-15T13:11:14;0.77;;;0.77;;
16407;SDS011;8313;49.894;8.084;2023-04-15T13:13:41;0.67;;;0.67;;
16407;SDS011;8313;49.894;8.084;2023-04-15T13:16:07;0.50;;;0.50;;
16407;SDS011;8313;49.894;8.084;2023-04-15T13:18:33;0.80;;;0.80;;
16407;SDS011;8313;49.894;8.084;2023-04-15T13:20:59;0.70;;;0.70;;
16407;SDS011;8313;49.894;8.084;2023-04-15T13:23:25;1.93;;;1.10;;
16407;SDS011;8313;49.894;8.084;2023-04-15T13:25:51;0.60;;;0.60;;
16407;SDS011;8313;49.894;8.084;2023-04-15T13:28:17;1.07;;;1.00;;
16407;SDS011;8313;49.894;8.084;2023-04-15T13:30:43;0.70;;;0.70;;
16407;SDS011;8313;49.894;8.084;2023-04-15T13:33:10;0.90;;;0.90;;
16407;SDS011;8313;49.894;8.084;2023-04-15T13:35:36;0.73;;;0.73;;
16407;SDS011;8313;49.894;8.084;2023-04-15T13:38:02;0.80;;;0.80;;
16407;SDS011;8313;49.894;8.084;2023-04-15T13:40:27;1.00;;;0.90;;
16407;SDS011;8313;49.894;8.084;2023-04-15T13:42:53;0.83;;;0.83;;
16407;SDS011;8313;49.894;8.084;2023-04-15T13:45:19;1.00;;;0.80;;
16407;SDS011;8313;49.894;8.084;2023-04-15T13:47:44;2.57;;;1.03;;
16407;SDS011;8313;49.894;8.084;2023-04-15T13:50:10;0.90;;;0.90;;
16407;SDS011;8313;49.894;8.084;2023-04-15T13:52:36;0.70;;;0.70;;
16407;SDS011;8313;49.894;8.084;2023-04-15T13:55:02;1.07;;;0.87;;
16407;SDS011;8313;49.894;8.084;2023-04-15T13:57:28;0.70;;;0.70;;
16407;SDS011;8313;49.894;8.084;2023-04-15T13:59:55;1.27;;;0.73;;
16407;SDS011;8313;49.894;8.084;2023-04-15T14:02:21;0.70;;;0.60;;
16407;SDS011;8313;49.894;8.084;2023-04-15T14:04:47;0.70;;;0.70;;
16407;SDS011;8313;49.894;8.084;2023-04-15T14:07:13;0.73;;;0.73;;
16407;SDS011;8313;49.894;8.084;2023-04-15T14:09:38;0.93;;;0.90;;
16407;SDS011;8313;49.894;8.084;2023-04-15T14:12:04;1.23;;;1.10;;
16407;SDS011;8313;49.894;8.084;2023-04-15T14:14:30;0.83;;;0.83;;
16407;SDS011;8313;49.894;8.084;2023-04-15T14:16:55;0.90;;;0.90;;
16407;SDS011;8313;49.894;8.084;2023-04-15T14:19:22;1.57;;;1.03;;
16407;SDS011;8313;49.894;8.084;2023-04-15T14:21:48;1.70;;;1.23;;
16407;SDS011;8313;49.894;8.084;2023-04-15T14:24:14;1.10;;;1.00;;
16407;SDS011;8313;49.894;8.084;2023-04-15T14:26:39;1.10;;;1.00;;
16407;SDS011;8313;49.894;8.084;2023-04-15T14:29:07;1.40;;;1.20;;
16407;SDS011;8313;49.894;8.084;2023-04-15T14:31:33;1.23;;;1.13;;
16407;SDS011;8313;49.894;8.084;2023-04-15T14:33:59;1.13;;;1.13;;
16407;SDS011;8313;49.894;8.084;2023-04-15T14:36:25;1.27;;;1.17;;
16407;SDS011;8313;49.894;8.084;2023-04-15T14:38:51;1.33;;;1.23;;
16407;SDS011;8313;49.894;8.084;2023-04-15T14:41:17;1.40;;;1.30;;
16407;SDS011;8313;49.894;8.084;2023-04-15T14:43:42;1.43;;;1.10;;
16407;SDS011;8313;49.894;8.084;2023-04-15T14:46:09;1.00;;;1.00;;
16407;SDS011;8313;49.894;8.084;2023-04-15T14:48:35;1.53;;;1.33;;
16407;SDS011;8313;49.894;8.084;2023-04-15T14:51:01;1.37;;;1.27;;
16407;SDS011;8313;49.894;8.084;2023-04-15T14:53:27;1.03;;;1.03;;
16407;SDS011;8313;49.894;8.084;2023-04-15T14:55:53;1.47;;;1.37;;
16407;SDS011;8313;49.894;8.084;2023-04-15T14:58:18;1.33;;;1.23;;
16407;SDS011;8313;49.894;8.084;2023-04-15T15:00:44;1.23;;;1.20;;
16407;SDS011;8313;49.894;8.084;2023-04-15T15:03:10;1.50;;;1.40;;
16407;SDS011;8313;49.894;8.084;2023-04-15T15:05:37;1.87;;;1.40;;
16407;SDS011;8313;49.894;8.084;2023-04-15T15:08:05;2.07;;;1.60;;
16407;SDS011;8313;49.894;8.084;2023-04-15T15:10:34;1.50;;;1.40;;
16407;SDS011;8313;49.894;8.084;2023-04-15T15:13:01;1.60;;;1.50;;
16407;SDS011;8313;49.894;8.084;2023-04-15T15:15:31;1.77;;;1.60;;
16407;SDS011;8313;49.894;8.084;2023-04-15T15:17:58;2.93;;;1.50;;
16407;SDS011;8313;49.894;8.084;2023-04-15T15:20:29;1.50;;;1.40;;
16407;SDS011;8313;49.894;8.084;2023-04-15T15:22:55;1.30;;;1.20;;
16407;SDS011;8313;49.894;8.084;2023-04-15T15:25:28;2.20;;;1.50;;
16407;SDS011;8313;49.894;8.084;2023-04-15T15:27:58;2.57;;;2.17;;